Main page
METAR-TAF:

METAR-TAF

Airports :

Herat International Airport

Herat, Afghanistan

latitude: 34-13N, longitude: 062-13E, elevation: 964 m

Current weather observation

The report was made 28 minutes ago, at 05:55 UTC
Wind 3 kt from variable directions
Temperature 21°C
Humidity 21%
Pressure 1022 hPa
Visibility 10 km or more
no clouds below 1500 m and no cumulonimbus

METAR: OAHR 230555Z VRB03KT CAVOK 21/M02 Q1022 RMK A3018 BLU

Time: 10:53 (06:23 UTC)

Forecast

The report was made 1 hour and 23 minutes ago, at 05:00 UTC
Forecast valid from 23 at 06 UTC to 24 at 06 UTC
Wind 3 kt from variable directions
Visibility 10 km or more
no clouds below 1500 m and no cumulonimbus
Becoming
from 23 at 07 UTC to 23 at 09 UTC
Wind 12 kt from the West/Southwest
Becoming
from 23 at 14 UTC to 23 at 16 UTC
Wind 3 kt from variable directions
Visibility 10 km or more
Few clouds at a height of 8000 ft

TAF: OAHR 230500Z 2306/2406 VRB03KT CAVOK BECMG 2307/2309 25012KT BECMG 2314/2316 VRB03KT 9999 FEW080

Weather observations and forecasts of more than 4000 airports (METAR and TAF reports).

The available stations are represented by yellow and red dots on the map.

Hover mouse over dot to see the name of the station.

Then click to see weather observations and forecasts.

To change the map : click on the green buttons with a black cross to zoom in, on the green button with a dash to zoom out, or on the green arrows for adjacent maps.


METAR-TAF: